Time;durP1;ratioP1;P1;durP2;ratioP2;P2;SDS_P1;SDS_P2;PMS_P1;PMS_P2;Temp;Humidity;BMP_temperature;BMP_pressure;BME280_temperature;BME280_humidity;BME280_pressure;Samples;Min_cycle;Max_cycle;Signal;HPM_P1;HPM_P2
2023/07/26 00:02:46;;;;;;;3.95;3.17;;;;;;;22.24;79.55;99978.84;10412121;28;20128;-75
2023/07/26 00:07:47;;;;;;;4.63;3.72;;;;;;;22.16;79.80;99975.75;10411315;28;20087;-75
2023/07/26 00:12:48;;;;;;;5.40;3.50;;;;;;;22.08;80.15;99980.53;10411306;28;20481;-75
2023/07/26 00:17:48;;;;;;;4.25;3.53;;;;;;;22.04;80.37;99994.81;10410883;28;20045;-75
2023/07/26 00:22:49;;;;;;;4.30;3.90;;;;;;;21.55;80.71;99919.03;10410145;28;20132;-75
2023/07/26 00:27:50;;;;;;;4.50;3.58;;;;;;;22.02;81.29;100002.38;10454092;27;20031;-75
2023/07/26 00:32:51;;;;;;;4.43;3.60;;;;;;;21.75;81.44;99973.38;10411463;28;20520;-75
2023/07/26 00:37:52;;;;;;;4.90;3.70;;;;;;;21.71;82.05;99979.53;10410044;28;20041;-75
2023/07/26 00:42:53;;;;;;;5.68;4.20;;;;;;;21.59;82.42;99987.75;10410724;28;20041;-75
2023/07/26 00:47:53;;;;;;;5.50;4.10;;;;;;;21.70;82.75;100021.16;10410683;28;20117;-75
2023/07/26 00:52:54;;;;;;;6.10;4.10;;;;;;;21.60;83.15;100024.53;10409141;28;20118;-74
2023/07/26 00:57:57;;;;;;;7.50;4.90;;;;;;;21.48;83.79;100026.50;10408898;28;20056;-75
2023/07/26 01:02:57;;;;;;;31.42;6.50;;;;;;;21.34;84.20;100023.28;10409612;28;20094;-75
2023/07/26 01:08:21;;;;;;;20.77;6.00;;;;;;;21.31;86.46;100034.59;10409724;28;20370;-75
2023/07/26 01:13:52;;;;;;;9.68;4.97;;;;;;;21.27;86.98;100045.09;10407721;28;20049;-74
2023/07/26 01:18:53;;;;;;;10.98;5.50;;;;;;;21.17;85.87;100043.00;10409060;28;20048;-75
2023/07/26 01:23:53;;;;;;;6.50;5.20;;;;;;;21.15;85.97;100031.66;10408028;28;20052;-74
2023/07/26 01:28:54;;;;;;;11.52;5.80;;;;;;;20.65;85.96;99956.81;10503910;27;20129;-74
2023/07/26 01:33:56;;;;;;;6.93;6.00;;;;;;;21.00;86.69;100030.56;10623697;27;20452;-74
2023/07/26 01:38:58;;;;;;;10.40;6.03;;;;;;;21.07;86.55;100039.34;10622794;27;20047;-75
2023/07/26 01:43:59;;;;;;;8.48;6.20;;;;;;;21.14;86.87;100057.00;10623201;27;20115;-75
2023/07/26 01:49:00;;;;;;;7.60;6.45;;;;;;;21.17;87.29;100061.09;10623167;27;20496;-74
2023/07/26 01:54:01;;;;;;;8.30;6.07;;;;;;;21.16;87.18;100059.47;10623343;27;20126;-74
2023/07/26 01:59:03;;;;;;;7.55;6.75;;;;;;;21.09;87.50;100083.09;10622205;27;20038;-75
2023/07/26 02:04:04;;;;;;;21.15;6.97;;;;;;;20.98;88.39;100080.25;10561327;27;20033;-75
2023/07/26 02:09:05;;;;;;;8.80;6.85;;;;;;;20.47;88.73;99992.09;10407485;28;20053;-75
2023/07/26 02:14:06;;;;;;;11.85;6.65;;;;;;;21.09;89.06;100083.09;10407271;28;20145;-74
2023/07/26 02:19:07;;;;;;;9.70;6.47;;;;;;;20.57;89.22;100008.50;10406008;28;20136;-75
2023/07/26 02:24:08;;;;;;;7.63;6.18;;;;;;;20.94;90.09;100087.19;10407736;28;20045;-75
2023/07/26 02:29:09;;;;;;;12.05;5.88;;;;;;;20.72;90.80;100056.53;10406314;28;20041;-74
2023/07/26 02:34:09;;;;;;;10.25;5.97;;;;;;;21.01;90.96;100051.94;10406704;28;20080;-75
2023/07/26 02:39:10;;;;;;;6.78;5.75;;;;;;;21.07;89.57;100018.53;10411016;28;20094;-75
2023/07/26 02:44:11;;;;;;;8.13;5.97;;;;;;;21.94;88.43;100075.81;10413887;28;20044;-75
2023/07/26 02:49:12;;;;;;;6.82;5.10;;;;;;;22.66;87.16;100094.59;10413119;28;20489;-75
2023/07/26 02:54:13;;;;;;;10.02;5.03;;;;;;;23.13;84.37;100020.88;10412926;28;20158;-74
2023/07/26 02:59:14;;;;;;;75.40;8.88;;;;;;;24.54;81.08;100089.00;10415009;28;20393;-76
2023/07/26 03:04:14;;;;;;;28.42;5.88;;;;;;;25.02;75.54;99999.97;10412528;28;20084;-75
2023/07/26 03:09:15;;;;;;;8.77;4.93;;;;;;;26.68;71.24;100103.53;10413770;28;20399;-76
2023/07/26 03:14:16;;;;;;;5.72;4.53;;;;;;;27.80;65.92;100112.03;10412615;28;20060;-76
2023/07/26 03:19:17;;;;;;;34.88;6.63;;;;;;;28.89;63.78;100114.00;10412472;28;20052;-76
2023/07/26 03:24:17;;;;;;;17.52;5.32;;;;;;;29.68;60.52;100095.00;10412117;28;20045;-76
2023/07/26 03:29:18;;;;;;;4.85;4.07;;;;;;;30.62;56.96;100117.53;10412489;28;20116;-77
2023/07/26 03:34:19;;;;;;;4.60;4.07;;;;;;;30.85;55.87;100072.63;10411775;28;20037;-77
2023/07/26 03:39:20;;;;;;;6.70;4.45;;;;;;;31.19;53.92;100049.31;10411805;28;20424;-77
2023/07/26 03:44:21;;;;;;;52.90;7.80;;;;;;;32.46;52.71;100112.97;10412751;28;20034;-77
2023/07/26 03:49:22;;;;;;;13.20;4.22;;;;;;;32.90;51.17;100111.06;10410453;28;20128;-74
2023/07/26 03:54:22;;;;;;;6.93;4.13;;;;;;;33.17;49.87;100121.75;10410603;28;20530;-73
2023/07/26 03:59:23;;;;;;;5.28;3.75;;;;;;;32.79;48.13;100060.22;10411692;28;20046;-73
2023/07/26 04:04:24;;;;;;;4.72;3.50;;;;;;;32.97;47.90;100098.44;10411975;28;20140;-75
2023/07/26 04:09:25;;;;;;;5.60;3.65;;;;;;;33.48;46.97;100111.69;10409429;28;20042;-75
2023/07/26 04:14:26;;;;;;;5.47;3.70;;;;;;;33.51;45.97;100117.38;10409942;28;20068;-75
2023/07/26 04:19:26;;;;;;;5.47;3.60;;;;;;;32.96;45.77;100057.47;10401070;28;20170;-75
2023/07/26 04:24:27;;;;;;;4.75;3.15;;;;;;;33.70;45.35;100091.41;10396332;28;20050;-75
2023/07/26 04:29:28;;;;;;;5.63;3.22;;;;;;;33.85;45.15;100101.88;10398962;28;20046;-75
2023/07/26 04:34:29;;;;;;;4.63;2.92;;;;;;;33.67;45.36;100098.38;10406077;28;20057;-74
2023/07/26 04:39:30;;;;;;;3.25;2.53;;;;;;;34.25;43.99;100088.59;10406460;28;20124;-74
2023/07/26 04:44:30;;;;;;;3.20;2.70;;;;;;;34.17;43.23;100096.91;10408160;28;20060;-74
2023/07/26 04:49:31;;;;;;;4.10;2.75;;;;;;;34.13;43.64;100082.97;10406672;28;20033;-72
2023/07/26 04:54:32;;;;;;;8.50;3.08;;;;;;;34.17;43.15;100061.06;10405447;28;20045;-72
2023/07/26 04:59:33;;;;;;;8.45;3.13;;;;;;;34.16;42.16;100100.78;10409401;28;20037;-72
2023/07/26 05:04:34;;;;;;;4.55;2.88;;;;;;;33.70;41.79;100092.22;10408789;28;20042;-71
2023/07/26 05:09:35;;;;;;;7.47;3.20;;;;;;;33.26;41.72;100105.22;10409144;28;20106;-71
2023/07/26 05:14:38;;;;;;;17.35;3.40;;;;;;;32.02;42.22;100024.06;10408853;28;20061;-73
2023/07/26 05:19:39;;;;;;;8.15;3.08;;;;;;;30.82;44.09;99955.31;10409151;28;20408;-72
2023/07/26 05:24:40;;;;;;;4.22;3.13;;;;;;;30.51;46.08;100003.75;10409596;28;20033;-72
2023/07/26 05:29:41;;;;;;;5.38;3.33;;;;;;;30.73;45.70;100077.81;10408428;28;20041;-72
2023/07/26 05:34:42;;;;;;;6.97;3.30;;;;;;;30.15;47.60;100027.25;10408418;28;20515;-72
2023/07/26 05:39:43;;;;;;;4.53;2.75;;;;;;;30.34;47.66;100070.19;10408388;28;20557;-74
2023/07/26 05:44:44;;;;;;;5.53;3.50;;;;;;;29.98;47.04;100014.19;10407586;28;20049;-72
2023/07/26 05:49:45;;;;;;;4.97;3.35;;;;;;;30.38;46.21;100076.66;10408382;28;20073;-73
2023/07/26 05:54:46;;;;;;;5.40;3.72;;;;;;;30.51;45.13;100086.78;10407185;28;20412;-72
2023/07/26 05:59:46;;;;;;;4.18;3.05;;;;;;;30.50;45.28;100081.63;10407235;28;20042;-72
2023/07/26 06:04:47;;;;;;;5.57;3.25;;;;;;;30.14;44.53;99991.94;10407626;28;20106;-74
2023/07/26 06:09:48;;;;;;;11.60;3.42;;;;;;;30.31;42.25;100008.59;10407569;28;20038;-72
2023/07/26 06:14:49;;;;;;;4.03;3.10;;;;;;;30.86;42.05;100087.16;10406475;28;20581;-72
2023/07/26 06:19:50;;;;;;;4.55;3.03;;;;;;;30.91;42.15;100087.03;10407795;28;20480;-73
2023/07/26 06:24:51;;;;;;;8.30;3.55;;;;;;;30.66;42.46;100008.88;10406441;28;20490;-71
2023/07/26 06:29:51;;;;;;;7.30;2.90;;;;;;;31.24;41.44;100071.13;10406973;28;20041;-71
2023/07/26 06:34:52;;;;;;;8.90;3.10;;;;;;;31.34;40.21;100084.63;10407144;28;20045;-71
2023/07/26 06:39:53;;;;;;;10.82;3.35;;;;;;;30.52;39.57;99936.88;10407326;28;20041;-73
2023/07/26 06:44:54;;;;;;;5.53;2.90;;;;;;;31.34;39.81;100061.81;10406175;28;20075;-71
2023/07/26 06:49:55;;;;;;;4.32;3.13;;;;;;;31.48;39.37;100065.34;10405879;28;20126;-72
2023/07/26 06:54:56;;;;;;;5.75;2.92;;;;;;;31.43;39.29;100049.00;10406061;28;20062;-72
2023/07/26 06:59:56;;;;;;;6.47;3.35;;;;;;;31.42;39.58;100046.56;10406280;28;20473;-71
2023/07/26 07:04:57;;;;;;;5.68;3.08;;;;;;;31.57;39.32;100046.16;10406083;28;20520;-71
2023/07/26 07:09:58;;;;;;;12.13;3.35;;;;;;;31.30;38.96;99979.31;10405921;28;20065;-71
2023/07/26 07:14:59;;;;;;;7.35;3.17;;;;;;;31.76;39.96;100040.44;10406164;28;20068;-73
2023/07/26 07:20:00;;;;;;;5.28;3.40;;;;;;;31.80;39.84;100053.22;10405145;28;20136;-73
2023/07/26 07:25:01;;;;;;;6.28;3.28;;;;;;;31.72;40.62;100039.44;10409859;28;20059;-71
2023/07/26 07:30:02;;;;;;;4.85;3.10;;;;;;;32.09;40.99;100032.63;10412020;28;20499;-71
2023/07/26 07:35:05;;;;;;;10.93;3.92;;;;;;;32.27;40.43;100044.47;10411926;28;20124;-73
2023/07/26 07:40:07;;;;;;;;;;;;;;;32.48;40.32;100033.69;10412898;28;20382;-71
2023/07/26 07:45:08;;;;;;;;;;;;;;;32.39;40.14;100036.41;10412027;28;19966;-72
2023/07/26 07:50:09;;;;;;;8.30;3.13;;;;;;;31.98;40.00;99979.94;10411328;28;19923;-70
2023/07/26 07:55:10;;;;;;;12.60;3.35;;;;;;;32.49;40.49;100021.59;10411830;28;20045;-71
2023/07/26 08:00:11;;;;;;;7.45;3.00;;;;;;;32.07;39.78;99977.22;10412025;28;20429;-71
2023/07/26 08:05:12;;;;;;;7.53;3.38;;;;;;;32.58;39.52;100024.31;10410754;28;20041;-71
2023/07/26 08:10:13;;;;;;;6.28;3.35;;;;;;;32.85;39.19;100013.00;10411305;28;20042;-71
2023/07/26 08:15:13;;;;;;;4.85;3.13;;;;;;;32.90;38.21;100012.00;10410898;28;20061;-71
2023/07/26 08:20:14;;;;;;;13.63;3.67;;;;;;;32.62;36.73;99929.88;10411203;28;20057;-72
2023/07/26 08:25:15;;;;;;;9.50;3.40;;;;;;;32.98;36.15;99967.22;10410172;28;20044;-71
2023/07/26 08:30:16;;;;;;;5.43;3.17;;;;;;;32.88;35.26;99956.53;10410690;28;20042;-71
2023/07/26 08:35:17;;;;;;;11.20;3.03;;;;;;;32.89;35.03;99963.63;10409326;28;20065;-73
2023/07/26 08:40:19;;;;;;;12.23;3.80;;;;;;;33.00;34.60;99959.44;10410636;28;20073;-71
2023/07/26 08:45:20;;;;;;;7.85;3.28;;;;;;;33.23;34.16;99946.25;10410102;28;20408;-71
2023/07/26 08:50:21;;;;;;;16.95;4.25;;;;;;;33.28;34.51;99931.50;10410093;28;20102;-71
2023/07/26 08:55:22;;;;;;;10.95;3.00;;;;;;;33.33;34.93;99923.06;10409119;28;20526;-71
2023/07/26 09:00:26;;;;;;;9.05;3.08;;;;;;;33.20;33.11;99924.88;10409625;28;20504;-72
2023/07/26 09:05:27;;;;;;;15.70;3.90;;;;;;;33.11;33.73;99900.13;10410344;28;20037;-72
2023/07/26 09:10:30;;;;;;;8.00;3.58;;;;;;;33.42;34.04;99926.59;10409346;28;20166;-71
2023/07/26 09:15:37;;;;;;;10.15;3.70;;;;;;;33.55;33.67;99919.25;10407816;28;20117;-71
2023/07/26 09:20:38;;;;;;;4.22;2.78;;;;;;;33.21;32.68;99893.47;10409033;28;20087;-73
2023/07/26 09:25:42;;;;;;;8.85;3.05;;;;;;;33.04;33.13;99905.34;10408971;28;20045;-72
2023/07/26 09:30:48;;;;;;;11.00;3.10;;;;;;;32.56;32.95;99768.94;10408496;28;20038;-72
2023/07/26 09:35:54;;;;;;;7.75;3.08;;;;;;;32.99;32.71;99836.75;10407802;28;20094;-73
2023/07/26 09:40:54;;;;;;;8.25;3.00;;;;;;;33.58;33.25;99880.03;10407192;28;20561;-70
2023/07/26 09:46:00;;;;;;;14.95;3.60;;;;;;;33.83;31.93;99880.97;10406797;28;20120;-74
2023/07/26 09:51:05;;;;;;;17.58;3.70;;;;;;;33.83;31.30;99869.97;10408047;28;20037;-71
2023/07/26 09:56:07;;;;;;;23.58;3.83;;;;;;;33.65;32.36;99869.28;10408179;28;20037;-71
2023/07/26 10:01:11;;;;;;;17.63;3.83;;;;;;;33.85;32.43;99862.97;10408182;28;20045;-74
2023/07/26 10:06:14;;;;;;;7.68;3.50;;;;;;;33.73;31.88;99862.09;10407046;28;20517;-72
2023/07/26 10:11:15;;;;;;;12.20;3.47;;;;;;;34.03;31.88;99858.16;10407652;28;20504;-72
2023/07/26 10:16:16;;;;;;;10.63;3.30;;;;;;;34.02;31.87;99850.22;10407865;28;20057;-71
2023/07/26 10:21:21;;;;;;;8.93;3.42;;;;;;;33.68;31.04;99812.72;10407424;28;20064;-72
2023/07/26 10:26:23;;;;;;;11.18;3.60;;;;;;;34.11;32.08;99839.16;10407629;28;20039;-71
2023/07/26 10:31:24;;;;;;;6.80;3.60;;;;;;;34.39;31.58;99839.34;10406538;28;20041;-71
2023/07/26 10:36:32;;;;;;;34.42;4.45;;;;;;;34.44;30.43;99839.94;10406880;28;20583;-71
2023/07/26 10:41:35;;;;;;;20.60;3.90;;;;;;;33.96;30.32;99771.66;10406983;28;20102;-72
2023/07/26 10:46:48;;;;;;;5.95;3.10;;;;;;;34.17;31.04;99774.41;10404989;28;20041;-71
2023/07/26 10:51:58;;;;;;;10.07;3.55;;;;;;;34.49;31.12;99838.91;10403340;28;20045;-74
2023/07/26 10:57:18;;;;;;;6.07;3.28;;;;;;;34.60;31.32;99837.38;10385465;28;20045;-73
2023/07/26 11:02:49;;;;;;;6.55;3.13;;;;;;;34.69;29.83;99840.03;10390889;28;20067;-79
2023/07/26 11:07:51;;;;;;;;;;;;;;;34.86;31.24;99826.03;10399689;28;20120;-72
2023/07/26 11:13:08;;;;;;;11.45;3.28;;;;;;;34.63;29.62;99820.13;10390282;28;19928;-73
2023/07/26 11:18:11;;;;;;;9.98;3.75;;;;;;;34.58;30.59;99816.78;10397467;28;20047;-72
2023/07/26 11:23:19;;;;;;;11.30;3.42;;;;;;;34.70;30.54;99819.56;10395391;28;20037;-72
2023/07/26 11:28:21;;;;;;;6.20;3.00;;;;;;;34.42;30.85;99805.59;10396978;28;20119;-71
2023/07/26 11:33:36;;;;;;;9.73;3.25;;;;;;;34.47;31.03;99806.19;10391535;28;20082;-71
2023/07/26 11:38:42;;;;;;;9.85;3.70;;;;;;;34.74;29.80;99820.50;10389917;28;20160;-73
2023/07/26 11:43:43;;;;;;;7.95;3.30;;;;;;;34.56;30.63;99806.09;10389303;28;20405;-72
2023/07/26 11:48:44;;;;;;;10.52;3.35;;;;;;;34.72;29.70;99806.25;10395714;28;20037;-76
2023/07/26 11:53:46;;;;;;;9.35;3.25;;;;;;;34.46;29.33;99754.94;10390963;28;20422;-73
2023/07/26 11:58:47;;;;;;;19.98;3.85;;;;;;;34.35;29.60;99737.22;10406799;28;20389;-72
2023/07/26 12:03:48;;;;;;;17.17;3.38;;;;;;;34.70;30.54;99816.81;10411442;28;20042;-73
2023/07/26 12:08:49;;;;;;;5.78;3.10;;;;;;;34.34;30.72;99721.00;10411123;28;20039;-71
2023/07/26 12:13:57;;;;;;;8.02;3.10;;;;;;;34.35;30.40;99731.69;10411411;28;20054;-71
2023/07/26 12:19:00;;;;;;;5.13;2.80;;;;;;;34.65;30.07;99783.94;10409103;28;20077;-72
2023/07/26 12:24:06;;;;;;;5.13;3.03;;;;;;;34.58;30.27;99783.69;10410339;28;20448;-75
2023/07/26 12:29:07;;;;;;;5.93;2.70;;;;;;;34.47;30.32;99777.78;10410640;28;20038;-73
2023/07/26 12:34:13;;;;;;;10.38;2.95;;;;;;;34.35;30.60;99761.22;10410167;28;20048;-71
2023/07/26 12:39:16;;;;;;;5.93;3.20;;;;;;;34.39;30.23;99784.22;10409076;28;20431;-71
2023/07/26 12:44:17;;;;;;;7.45;3.30;;;;;;;34.51;30.10;99779.50;10409947;28;20037;-73
2023/07/26 12:49:18;;;;;;;7.97;3.38;;;;;;;34.54;29.96;99765.06;10410169;28;20039;-72
2023/07/26 12:54:19;;;;;;;3.80;3.08;;;;;;;34.46;30.10;99773.41;10409804;28;20067;-72
2023/07/26 12:59:20;;;;;;;9.48;3.45;;;;;;;34.43;30.10;99769.41;10409218;28;20041;-73
2023/07/26 13:04:20;;;;;;;19.80;3.38;;;;;;;34.21;30.41;99728.47;10410264;28;20549;-71
2023/07/26 13:09:21;;;;;;;14.60;3.20;;;;;;;34.19;30.50;99755.53;10407951;28;20136;-72
2023/07/26 13:14:22;;;;;;;8.15;3.08;;;;;;;34.09;30.78;99765.06;10432685;27;20063;-71
2023/07/26 13:19:23;;;;;;;10.50;3.20;;;;;;;33.90;30.31;99738.00;10623842;27;20490;-71
2023/07/26 13:24:24;;;;;;;14.15;3.30;;;;;;;34.04;30.53;99768.03;10622908;27;20035;-73
2023/07/26 13:29:24;;;;;;;6.28;3.20;;;;;;;33.99;30.42;99758.00;10623549;27;20490;-71
2023/07/26 13:34:25;;;;;;;5.53;3.13;;;;;;;34.04;30.04;99768.03;10623719;27;20043;-71
2023/07/26 13:39:26;;;;;;;5.95;3.10;;;;;;;33.78;30.11;99748.97;10622865;27;20047;-73
2023/07/26 13:44:27;;;;;;;11.15;2.70;;;;;;;33.71;30.24;99751.44;10623073;27;20126;-73
2023/07/26 13:49:28;;;;;;;8.77;3.03;;;;;;;33.76;29.87;99770.53;10622653;27;20053;-71
2023/07/26 13:54:29;;;;;;;19.10;3.70;;;;;;;33.09;30.56;99654.78;10622254;27;20039;-71
2023/07/26 13:59:30;;;;;;;16.23;3.38;;;;;;;33.81;30.93;99779.41;10622806;27;20050;-72
2023/07/26 14:04:31;;;;;;;17.38;3.65;;;;;;;33.22;30.96;99707.94;10622604;27;20058;-71
2023/07/26 14:09:32;;;;;;;6.43;2.97;;;;;;;33.27;31.04;99740.75;10622259;27;20043;-71
2023/07/26 14:14:33;;;;;;;26.88;3.70;;;;;;;33.38;31.53;99782.44;10622325;27;20442;-71
2023/07/26 14:19:35;;;;;;;9.85;2.80;;;;;;;32.69;31.25;99657.91;10622488;27;20121;-71
2023/07/26 14:24:35;;;;;;;19.00;3.22;;;;;;;33.30;31.54;99786.09;10623122;27;20083;-71
2023/07/26 14:29:36;;;;;;;36.13;4.70;;;;;;;33.19;31.41;99791.97;10620746;28;20062;-71
2023/07/26 14:34:37;;;;;;;13.40;3.05;;;;;;;33.10;31.34;99793.16;10627118;27;20088;-71
2023/07/26 14:39:38;;;;;;;13.82;2.90;;;;;;;32.88;31.19;99781.25;10630732;27;20035;-72
2023/07/26 14:44:39;;;;;;;16.20;3.55;;;;;;;32.92;31.78;99800.66;10630683;27;20486;-73
2023/07/26 14:49:39;;;;;;;4.80;2.67;;;;;;;32.85;31.46;99800.38;10630720;27;20483;-71
2023/07/26 14:54:40;;;;;;;9.32;2.80;;;;;;;32.75;31.21;99801.53;10629528;27;20039;-71
2023/07/26 14:59:41;;;;;;;11.93;3.10;;;;;;;32.54;31.55;99773.94;10630233;27;20035;-71
2023/07/26 15:04:42;;;;;;;7.00;3.17;;;;;;;32.58;31.84;99799.69;10628505;27;20091;-73
2023/07/26 15:09:43;;;;;;;10.27;3.00;;;;;;;32.53;32.04;99808.09;10629052;27;20482;-70
2023/07/26 15:14:44;;;;;;;43.90;4.57;;;;;;;32.05;32.60;99743.19;10629851;27;20055;-71
2023/07/26 15:19:45;;;;;;;41.67;4.80;;;;;;;32.30;32.42;99793.72;10629182;27;20134;-72
2023/07/26 15:24:45;;;;;;;23.35;4.05;;;;;;;31.99;32.92;99766.47;10604612;27;20045;-71
2023/07/26 15:29:46;;;;;;;25.27;3.63;;;;;;;32.03;33.25;99805.88;10412734;28;20050;-71
2023/07/26 15:34:47;;;;;;;8.77;2.40;;;;;;;31.89;33.44;99813.44;10412034;28;20105;-71
2023/07/26 15:39:48;;;;;;;10.75;2.90;;;;;;;31.64;33.79;99799.41;10412902;28;20374;-72
2023/07/26 15:44:49;;;;;;;6.53;2.90;;;;;;;31.49;34.09;99802.63;10411182;28;20041;-71
2023/07/26 15:49:50;;;;;;;14.27;2.85;;;;;;;31.37;35.03;99804.03;10411300;28;20033;-70
2023/07/26 15:54:51;;;;;;;10.75;2.83;;;;;;;31.23;35.49;99817.06;10412129;28;20048;-72
2023/07/26 15:59:51;;;;;;;7.90;3.20;;;;;;;30.93;35.98;99788.56;10411758;28;20124;-71
2023/07/26 16:04:52;;;;;;;4.70;2.60;;;;;;;30.69;36.66;99786.19;10411464;28;20094;-71
2023/07/26 16:09:53;;;;;;;9.40;2.60;;;;;;;30.29;37.32;99749.72;10411377;28;20038;-71
2023/07/26 16:14:53;;;;;;;36.72;3.67;;;;;;;29.94;37.77;99716.59;10411551;28;20068;-71
2023/07/26 16:19:54;;;;;;;17.50;3.25;;;;;;;30.27;38.69;99798.53;10410293;28;20516;-70
2023/07/26 16:24:55;;;;;;;10.98;2.55;;;;;;;29.88;38.93;99773.41;10410432;28;20041;-71
2023/07/26 16:29:56;;;;;;;6.03;2.75;;;;;;;29.70;39.88;99772.47;10409467;28;20041;-71
2023/07/26 16:34:57;;;;;;;7.68;2.45;;;;;;;29.76;40.53;99817.78;10410845;28;20079;-70
2023/07/26 16:39:57;;;;;;;9.65;2.70;;;;;;;29.21;41.55;99767.81;10410522;28;20094;-71
2023/07/26 16:44:58;;;;;;;6.40;2.45;;;;;;;29.44;42.30;99837.09;10410186;28;20106;-70
2023/07/26 16:49:59;;;;;;;14.98;2.88;;;;;;;29.20;43.06;99829.91;10410082;28;20049;-70
2023/07/26 16:55:00;;;;;;;9.90;2.45;;;;;;;28.59;44.20;99766.25;10409643;28;20053;-70
2023/07/26 17:00:01;;;;;;;6.63;2.47;;;;;;;28.89;45.04;99851.53;10409394;28;20082;-71
2023/07/26 17:05:02;;;;;;;9.60;2.40;;;;;;;28.78;45.81;99867.31;10402350;28;20034;-74
2023/07/26 17:10:03;;;;;;;18.52;3.50;;;;;;;28.49;46.45;99842.97;10395429;28;20037;-72
2023/07/26 17:15:04;;;;;;;5.03;2.47;;;;;;;28.17;47.07;99824.59;10373499;28;20078;-71
2023/07/26 17:20:06;;;;;;;10.40;2.83;;;;;;;28.38;47.48;99879.72;10368734;28;20536;-71
2023/07/26 17:25:07;;;;;;;14.05;2.78;;;;;;;28.17;47.99;99869.09;10367571;28;20421;-71
2023/07/26 17:30:08;;;;;;;7.47;2.70;;;;;;;28.05;48.28;99881.59;10368257;28;20052;-71
2023/07/26 17:35:10;;;;;;;9.68;2.70;;;;;;;27.51;48.41;99809.97;10367877;28;20042;-72
2023/07/26 17:40:12;;;;;;;7.20;2.40;;;;;;;27.77;48.71;99890.41;10367476;28;20117;-71
2023/07/26 17:45:14;;;;;;;5.45;2.70;;;;;;;27.59;48.89;99885.72;10367669;28;20574;-71
2023/07/26 17:50:15;;;;;;;9.77;2.65;;;;;;;27.15;48.85;99826.00;10366415;28;20046;-72
2023/07/26 17:55:16;;;;;;;13.00;2.92;;;;;;;27.42;48.96;99882.66;10365640;28;20042;-72
2023/07/26 18:00:17;;;;;;;11.57;2.80;;;;;;;26.96;49.36;99836.81;10366526;28;20049;-73
2023/07/26 18:05:18;;;;;;;7.95;2.72;;;;;;;27.13;49.78;99880.75;10366760;28;20083;-71
2023/07/26 18:10:19;;;;;;;5.07;2.40;;;;;;;27.05;50.00;99889.59;10365227;28;20046;-71
2023/07/26 18:15:19;;;;;;;8.98;2.63;;;;;;;26.98;50.78;99903.56;10365446;28;20454;-72
2023/07/26 18:20:20;;;;;;;8.15;2.47;;;;;;;26.85;51.04;99898.78;10366038;28;20038;-72
2023/07/26 18:25:21;;;;;;;6.88;2.85;;;;;;;26.71;52.00;99889.63;10366418;28;20120;-72
2023/07/26 18:30:22;;;;;;;8.20;3.08;;;;;;;26.63;52.14;99899.25;10365475;28;20087;-72
2023/07/26 18:35:24;;;;;;;8.55;2.40;;;;;;;26.44;53.08;99885.47;10365374;28;20069;-71
2023/07/26 18:40:25;;;;;;;17.77;3.03;;;;;;;26.05;53.64;99831.03;10366884;28;20042;-71
2023/07/26 18:45:26;;;;;;;12.85;3.30;;;;;;;25.98;54.09;99825.13;10365590;28;20038;-72
2023/07/26 18:50:26;;;;;;;6.68;2.70;;;;;;;26.11;54.52;99862.56;10366090;28;20046;-72
2023/07/26 18:55:27;;;;;;;8.57;2.80;;;;;;;25.73;55.12;99832.31;10365069;28;20400;-72
2023/07/26 19:00:28;;;;;;;9.45;2.70;;;;;;;26.00;55.37;99901.84;10404460;28;20046;-72
2023/07/26 19:05:29;;;;;;;4.07;2.45;;;;;;;25.82;55.93;99897.88;10405241;28;20051;-73
2023/07/26 19:10:30;;;;;;;6.95;2.70;;;;;;;25.74;56.03;99897.31;10407191;28;20037;-73
2023/07/26 19:15:31;;;;;;;5.88;2.97;;;;;;;25.72;56.31;99894.03;10397280;28;20066;-72
2023/07/26 19:20:32;;;;;;;6.20;2.90;;;;;;;25.57;57.06;99880.53;10407429;28;20080;-73
2023/07/26 19:25:33;;;;;;;10.35;2.92;;;;;;;25.45;57.32;99889.00;10412188;28;20128;-72
2023/07/26 19:30:33;;;;;;;9.75;2.88;;;;;;;25.32;57.83;99888.78;10412902;28;20128;-73
2023/07/26 19:35:34;;;;;;;7.93;3.10;;;;;;;25.19;58.12;99890.19;10412723;28;20073;-71
2023/07/26 19:40:36;;;;;;;10.52;2.75;;;;;;;25.00;58.96;99879.84;10412079;28;20552;-72
2023/07/26 19:45:37;;;;;;;7.57;2.78;;;;;;;24.94;59.05;99883.66;10412011;28;20046;-73
2023/07/26 19:50:38;;;;;;;9.25;2.95;;;;;;;24.83;59.45;99882.88;10412353;28;20041;-72
2023/07/26 19:55:39;;;;;;;13.48;2.75;;;;;;;24.73;59.75;99877.44;10411779;28;20443;-71
2023/07/26 20:00:40;;;;;;;5.88;2.78;;;;;;;24.60;60.17;99883.44;10412172;28;20120;-71
2023/07/26 20:05:46;;;;;;;8.70;3.10;;;;;;;24.44;60.92;99877.22;10411132;28;20069;-72
2023/07/26 20:10:47;;;;;;;17.90;3.20;;;;;;;24.19;61.36;99847.28;10410724;28;20044;-71
2023/07/26 20:15:48;;;;;;;6.63;2.70;;;;;;;23.84;62.43;99817.13;10410973;28;20064;-72
2023/07/26 20:20:49;;;;;;;8.00;2.60;;;;;;;24.01;63.03;99870.31;10410459;28;20069;-72
2023/07/26 20:25:50;;;;;;;6.32;2.85;;;;;;;23.99;63.69;99878.75;10411509;28;20103;-71
2023/07/26 20:30:51;;;;;;;7.30;2.92;;;;;;;23.97;64.29;99883.63;10409790;28;20041;-71
2023/07/26 20:35:51;;;;;;;6.40;2.78;;;;;;;23.92;64.39;99892.53;10410124;28;20053;-71
2023/07/26 20:40:52;;;;;;;5.90;3.10;;;;;;;23.85;65.28;99891.19;10408635;28;20048;-71
2023/07/26 20:45:53;;;;;;;6.50;2.65;;;;;;;23.77;65.92;99881.66;10410392;28;20041;-71
2023/07/26 20:50:55;;;;;;;7.60;3.15;;;;;;;23.67;66.75;99882.41;10408365;28;20507;-71
2023/07/26 20:55:57;;;;;;;6.35;3.03;;;;;;;23.61;66.96;99883.47;10410403;28;20408;-71
2023/07/26 21:00:57;;;;;;;13.50;2.85;;;;;;;23.02;67.36;99805.97;10409364;28;20041;-71
2023/07/26 21:05:58;;;;;;;5.00;2.78;;;;;;;23.02;67.49;99813.28;10409556;28;20123;-71
2023/07/26 21:10:59;;;;;;;7.63;3.00;;;;;;;22.89;68.31;99808.31;10408908;28;20065;-71
2023/07/26 21:16:00;;;;;;;6.43;2.83;;;;;;;23.08;68.38;99844.72;10409694;28;20061;-72
2023/07/26 21:21:01;;;;;;;7.60;2.70;;;;;;;22.74;69.06;99801.72;10409295;28;20551;-71
2023/07/26 21:26:02;;;;;;;5.90;2.60;;;;;;;23.03;69.82;99855.53;10407857;28;20052;-71
2023/07/26 21:31:03;;;;;;;10.95;2.80;;;;;;;22.97;70.23;99862.00;10408497;28;20561;-71
2023/07/26 21:36:04;;;;;;;4.55;3.17;;;;;;;22.50;70.51;99793.19;10408697;28;20519;-71
2023/07/26 21:41:05;;;;;;;7.82;2.50;;;;;;;22.71;70.87;99832.03;10408464;28;20046;-71
2023/07/26 21:46:05;;;;;;;6.10;2.70;;;;;;;22.75;70.97;99837.75;10407553;28;20515;-71
2023/07/26 21:51:06;;;;;;;7.15;2.95;;;;;;;22.81;70.96;99849.41;10407817;28;20076;-71
2023/07/26 21:56:07;;;;;;;7.32;3.13;;;;;;;22.71;70.97;99844.75;10407725;28;20500;-71
2023/07/26 22:01:08;;;;;;;8.68;2.70;;;;;;;22.68;71.53;99846.09;10407790;28;20081;-71
2023/07/26 22:06:09;;;;;;;8.27;2.67;;;;;;;22.53;71.81;99838.66;10405977;28;20050;-71
2023/07/26 22:11:09;;;;;;;8.95;3.05;;;;;;;22.55;72.58;99833.81;10406603;28;20512;-71
2023/07/26 22:16:10;;;;;;;4.15;2.45;;;;;;;22.53;72.93;99832.44;10407197;28;20061;-71
2023/07/26 22:21:11;;;;;;;7.20;2.72;;;;;;;22.36;74.03;99820.94;10407311;28;20444;-71
2023/07/26 22:26:12;;;;;;;5.80;2.80;;;;;;;22.33;74.21;99822.28;10407284;28;20124;-71
2023/07/26 22:31:13;;;;;;;5.78;2.95;;;;;;;22.21;75.01;99816.22;10405900;28;20041;-71
2023/07/26 22:36:14;;;;;;;3.78;2.90;;;;;;;22.16;75.61;99814.25;10406980;28;20077;-71
2023/07/26 22:41:14;;;;;;;6.53;2.90;;;;;;;22.10;76.05;99809.84;10407063;28;20472;-71
2023/07/26 22:46:15;;;;;;;5.20;2.97;;;;;;;21.88;76.78;99781.00;10406854;28;20045;-71
2023/07/26 22:51:16;;;;;;;4.35;3.15;;;;;;;21.46;77.34;99709.78;10406216;28;20161;-71
2023/07/26 22:56:17;;;;;;;6.93;3.08;;;;;;;21.85;78.66;99786.09;10412095;28;20041;-71
2023/07/26 23:01:20;;;;;;;3.50;2.70;;;;;;;21.70;79.60;99762.44;10413706;28;20041;-72
2023/07/26 23:06:20;;;;;;;5.22;2.95;;;;;;;21.79;80.42;99781.72;10413262;28;20413;-71
2023/07/26 23:11:21;;;;;;;23.73;3.08;;;;;;;21.71;80.58;99753.25;10413265;28;20033;-71
2023/07/26 23:16:22;;;;;;;6.88;3.38;;;;;;;21.33;80.50;99692.88;10413269;28;20418;-71